createdAt,value
2018-12-27T00:01:27.634Z,4.09
2018-12-27T00:03:56.187Z,4.27
2018-12-27T00:06:24.778Z,4.32
2018-12-27T00:08:53.358Z,4.46
2018-12-27T00:11:21.874Z,4.48
2018-12-27T00:13:50.571Z,4.47
2018-12-27T00:16:19.173Z,4.50
2018-12-27T00:18:47.706Z,4.29
2018-12-27T00:21:16.255Z,3.69
2018-12-27T00:23:44.871Z,3.29
2018-12-27T00:26:13.444Z,3.29
2018-12-27T00:28:41.950Z,3.40
2018-12-27T00:31:10.582Z,3.64
2018-12-27T00:33:39.196Z,3.79
2018-12-27T00:36:07.845Z,4.04
2018-12-27T00:38:36.543Z,4.10
2018-12-27T00:41:05.121Z,4.14
2018-12-27T00:43:33.713Z,4.24
2018-12-27T00:46:02.412Z,4.39
2018-12-27T00:48:31.034Z,4.37
2018-12-27T00:50:59.607Z,4.46
2018-12-27T00:53:28.474Z,4.47
2018-12-27T00:55:57.100Z,4.13
2018-12-27T00:58:25.667Z,3.97
2018-12-27T01:00:54.266Z,3.89
2018-12-27T01:03:22.835Z,3.96
2018-12-27T01:05:51.467Z,3.96
2018-12-27T01:08:20.082Z,4.06
2018-12-27T01:10:48.654Z,4.17
2018-12-27T01:13:17.233Z,4.20
2018-12-27T01:15:45.835Z,4.23
2018-12-27T01:18:14.602Z,4.32
2018-12-27T01:20:43.219Z,4.43
2018-12-27T01:23:11.795Z,4.40
2018-12-27T01:25:40.425Z,4.44
2018-12-27T01:28:08.987Z,4.46
2018-12-27T01:30:37.590Z,4.26
2018-12-27T01:33:06.229Z,4.00
2018-12-27T01:35:34.827Z,3.74
2018-12-27T01:38:03.405Z,3.53
2018-12-27T01:40:31.995Z,3.53
2018-12-27T01:43:00.707Z,3.61
2018-12-27T01:45:29.319Z,3.85
2018-12-27T01:47:57.884Z,4.00
2018-12-27T01:50:26.467Z,4.18
2018-12-27T01:52:55.863Z,4.33
2018-12-27T01:55:24.463Z,4.37
2018-12-27T01:57:53.083Z,4.46
2018-12-27T02:00:21.696Z,4.48
2018-12-27T02:02:50.310Z,4.60
2018-12-27T02:05:18.873Z,4.38
2018-12-27T02:07:48.502Z,3.98
2018-12-27T02:10:17.096Z,3.43
2018-12-27T02:12:45.698Z,3.09
2018-12-27T02:15:14.260Z,3.00
2018-12-27T02:17:42.888Z,3.26
2018-12-27T02:20:11.480Z,3.52
2018-12-27T02:22:40.114Z,3.74
2018-12-27T02:25:08.723Z,3.94
2018-12-27T02:27:37.408Z,4.13
2018-12-27T02:30:05.974Z,4.24
2018-12-27T02:32:34.563Z,4.32
2018-12-27T02:35:03.261Z,4.35
2018-12-27T02:37:31.853Z,4.23
2018-12-27T02:40:00.508Z,4.23
2018-12-27T02:42:29.083Z,3.94
2018-12-27T02:44:57.696Z,3.52
2018-12-27T02:47:26.271Z,3.40
2018-12-27T02:49:54.880Z,3.30
2018-12-27T02:52:23.544Z,3.26
2018-12-27T02:54:52.145Z,3.53
2018-12-27T02:57:20.711Z,3.90
2018-12-27T02:59:49.275Z,3.97
2018-12-27T03:02:18.042Z,4.12
2018-12-27T03:04:46.598Z,4.28
2018-12-27T03:07:15.204Z,4.37
2018-12-27T03:09:43.779Z,4.32
2018-12-27T03:12:12.411Z,4.37
2018-12-27T03:14:41.003Z,4.32
2018-12-27T03:17:09.638Z,4.12
2018-12-27T03:19:38.239Z,3.47
2018-12-27T03:22:06.914Z,2.71
2018-12-27T03:24:35.513Z,2.37
2018-12-27T03:27:04.072Z,2.40
2018-12-27T03:29:32.653Z,2.73
2018-12-27T03:32:01.474Z,3.08
2018-12-27T03:34:30.098Z,3.40
2018-12-27T03:36:58.682Z,3.68
2018-12-27T03:39:27.273Z,3.85
2018-12-27T03:41:55.849Z,3.97
2018-12-27T03:44:24.834Z,3.89
2018-12-27T03:46:53.532Z,3.74
2018-12-27T03:49:22.230Z,3.67
2018-12-27T03:51:50.806Z,3.07
2018-12-27T03:54:19.398Z,2.03
2018-12-27T03:56:48.073Z,1.18
2018-12-27T03:59:16.659Z,0.85
2018-12-27T04:01:45.284Z,0.91
2018-12-27T04:04:13.854Z,1.16
2018-12-27T04:06:42.412Z,1.57
2018-12-27T04:09:11.028Z,2.00
2018-12-27T04:11:39.600Z,2.39
2018-12-27T04:14:08.206Z,2.62
2018-12-27T04:16:36.660Z,2.78
2018-12-27T04:19:05.269Z,2.73
2018-12-27T04:21:33.927Z,2.48
2018-12-27T04:24:02.783Z,2.47
2018-12-27T04:26:31.366Z,2.18
2018-12-27T04:28:59.792Z,1.49
2018-12-27T04:31:28.618Z,0.99
2018-12-27T04:33:57.591Z,0.63
2018-12-27T04:36:26.563Z,0.79
2018-12-27T04:38:55.015Z,0.79
2018-12-27T04:41:23.585Z,1.19
2018-12-27T04:43:52.677Z,1.56
2018-12-27T04:46:21.274Z,1.86
2018-12-27T04:48:49.799Z,2.05
2018-12-27T04:51:18.424Z,2.23
2018-12-27T04:53:46.906Z,2.33
2018-12-27T04:56:15.522Z,2.37
2018-12-27T04:58:43.976Z,2.32
2018-12-27T05:01:12.594Z,2.36
2018-12-27T05:03:41.152Z,1.96
2018-12-27T05:06:09.610Z,1.31
2018-12-27T05:08:38.174Z,1.11
2018-12-27T05:11:06.632Z,1.03
2018-12-27T05:13:35.188Z,1.25
2018-12-27T05:16:03.701Z,1.60
2018-12-27T05:18:32.276Z,2.03
2018-12-27T05:21:00.883Z,2.42
2018-12-27T05:23:29.507Z,2.64
2018-12-27T05:25:58.057Z,2.68
2018-12-27T05:28:26.594Z,2.70
2018-12-27T05:30:55.152Z,2.68
2018-12-27T05:33:23.661Z,2.53
2018-12-27T05:35:52.199Z,2.60
2018-12-27T05:38:20.665Z,2.07
2018-12-27T05:40:49.273Z,1.15
2018-12-27T05:43:17.813Z,0.38
2018-12-27T05:45:47.084Z,0.11
2018-12-27T05:48:15.711Z,0.20
2018-12-27T05:50:44.199Z,0.48
2018-12-27T05:53:12.844Z,0.92
2018-12-27T05:55:41.389Z,1.30
2018-12-27T05:58:09.851Z,1.57
2018-12-27T06:00:38.378Z,1.71
2018-12-27T06:03:06.887Z,1.86
2018-12-27T06:05:35.442Z,1.92
2018-12-27T06:08:04.039Z,1.80
2018-12-27T06:10:32.541Z,1.69
2018-12-27T06:13:01.025Z,1.74
2018-12-27T06:15:29.561Z,1.25
2018-12-27T06:17:58.151Z,0.55
2018-12-27T06:20:26.619Z,0.11
2018-12-27T06:22:55.249Z,0.15
2018-12-27T06:25:23.789Z,0.40
2018-12-27T06:27:52.425Z,0.81
2018-12-27T06:30:20.903Z,1.25
2018-12-27T06:32:49.398Z,1.53
2018-12-27T06:35:18.122Z,1.64
2018-12-27T06:37:46.762Z,1.85
2018-12-27T06:40:15.320Z,2.08
2018-12-27T06:42:43.832Z,2.05
2018-12-27T06:45:12.434Z,1.88
2018-12-27T06:47:40.976Z,2.03
2018-12-27T06:50:09.571Z,1.62
2018-12-27T06:52:38.101Z,0.75
2018-12-27T06:55:06.716Z,0.00
2018-12-27T06:57:35.227Z,-0.35
2018-12-27T07:00:05.460Z,-0.15
2018-12-27T07:02:34.156Z,0.33
2018-12-27T07:05:02.764Z,0.89
2018-12-27T07:07:31.380Z,1.53
2018-12-27T07:09:59.896Z,1.53
2018-12-27T07:12:28.449Z,1.73
2018-12-27T07:14:56.918Z,1.86
2018-12-27T07:17:25.511Z,1.94
2018-12-27T07:19:54.070Z,1.88
2018-12-27T07:22:22.624Z,1.96
2018-12-27T07:24:51.203Z,1.91
2018-12-27T07:27:19.761Z,1.31
2018-12-27T07:29:48.390Z,0.53
2018-12-27T07:32:16.906Z,0.13
2018-12-27T07:34:45.504Z,0.25
2018-12-27T07:37:14.052Z,0.68
2018-12-27T07:39:42.599Z,1.04
2018-12-27T07:42:11.133Z,1.30
2018-12-27T07:44:39.659Z,1.48
2018-12-27T07:47:08.332Z,1.62
2018-12-27T07:49:36.902Z,1.68
2018-12-27T07:52:05.599Z,1.78
2018-12-27T07:54:34.073Z,1.86
2018-12-27T07:57:02.618Z,1.92
2018-12-27T07:59:31.137Z,2.20
2018-12-27T08:01:59.769Z,1.85
2018-12-27T08:04:28.279Z,1.29
2018-12-27T08:06:56.762Z,0.93
2018-12-27T08:09:25.336Z,0.74
2018-12-27T08:11:53.874Z,0.98
2018-12-27T08:14:22.557Z,1.25
2018-12-27T08:16:51.189Z,1.45
2018-12-27T08:19:19.832Z,1.74
2018-12-27T08:21:48.333Z,2.01
2018-12-27T08:24:16.954Z,2.24
2018-12-27T08:26:45.486Z,2.43
2018-12-27T08:29:14.116Z,2.51
2018-12-27T08:31:42.737Z,2.58
2018-12-27T08:34:11.282Z,2.79
2018-12-27T08:36:39.833Z,2.77
2018-12-27T08:39:08.338Z,2.58
2018-12-27T08:41:36.928Z,2.47
2018-12-27T08:44:05.542Z,2.38
2018-12-27T08:46:34.161Z,2.26
2018-12-27T08:49:02.759Z,2.34
2018-12-27T08:51:31.328Z,2.53
2018-12-27T08:53:59.991Z,2.77
2018-12-27T08:56:28.545Z,3.06
2018-12-27T08:58:57.072Z,3.32
2018-12-27T09:01:25.625Z,3.48
2018-12-27T09:03:54.146Z,3.63
2018-12-27T09:06:22.645Z,3.75
2018-12-27T09:08:51.216Z,3.89
2018-12-27T09:11:19.743Z,4.07
2018-12-27T09:13:48.320Z,3.90
2018-12-27T09:16:16.846Z,3.48
2018-12-27T09:18:45.404Z,3.14
2018-12-27T09:21:13.992Z,2.84
2018-12-27T09:23:42.547Z,2.89
2018-12-27T09:26:11.085Z,2.99
2018-12-27T09:28:39.684Z,3.11
2018-12-27T09:31:08.232Z,3.41
2018-12-27T09:33:36.777Z,3.76
2018-12-27T09:36:05.350Z,4.06
2018-12-27T09:38:33.912Z,4.16
2018-12-27T09:41:02.949Z,4.27
2018-12-27T09:43:31.521Z,4.54
2018-12-27T09:46:00.141Z,4.74
2018-12-27T09:48:28.811Z,4.78
2018-12-27T09:50:57.350Z,4.79
2018-12-27T09:53:25.870Z,4.34
2018-12-27T09:55:54.453Z,4.06
2018-12-27T09:58:23.008Z,3.91
2018-12-27T10:00:51.448Z,4.05
2018-12-27T10:03:19.993Z,4.23
2018-12-27T10:05:48.601Z,4.40
2018-12-27T10:08:17.122Z,4.59
2018-12-27T10:10:45.643Z,4.68
2018-12-27T10:13:14.245Z,4.75
2018-12-27T10:15:42.802Z,4.81
2018-12-27T10:18:11.408Z,5.08
2018-12-27T10:20:39.975Z,5.41
2018-12-27T10:23:08.508Z,5.59
2018-12-27T10:25:37.087Z,5.25
2018-12-27T10:28:06.037Z,5.07
2018-12-27T10:30:34.698Z,4.96
2018-12-27T10:33:03.313Z,4.71
2018-12-27T10:35:31.905Z,4.74
2018-12-27T10:38:00.445Z,4.90
2018-12-27T10:40:28.975Z,4.99
2018-12-27T10:42:57.531Z,5.04
2018-12-27T10:45:26.005Z,5.24
2018-12-27T10:47:54.503Z,5.52
2018-12-27T10:50:23.134Z,5.86
2018-12-27T10:52:51.719Z,6.03
2018-12-27T10:55:20.275Z,6.26
2018-12-27T10:57:48.912Z,6.40
2018-12-27T11:00:17.602Z,6.24
2018-12-27T11:02:46.242Z,6.02
2018-12-27T11:05:14.822Z,5.92
2018-12-27T11:07:43.543Z,5.65
2018-12-27T11:10:12.070Z,5.61
2018-12-27T11:12:40.741Z,5.61
2018-12-27T11:15:09.516Z,5.73
2018-12-27T11:17:37.957Z,5.86
2018-12-27T11:20:06.787Z,6.11
2018-12-27T11:22:35.353Z,6.38
2018-12-27T11:25:04.147Z,6.60
2018-12-27T11:27:32.663Z,6.78
2018-12-27T11:30:01.279Z,7.04
2018-12-27T11:32:29.918Z,7.29
2018-12-27T11:34:58.447Z,7.15
2018-12-27T11:37:26.942Z,6.95
2018-12-27T11:39:55.490Z,6.70
2018-12-27T11:42:24.074Z,6.57
2018-12-27T11:44:52.665Z,6.38
2018-12-27T11:47:21.182Z,6.30
2018-12-27T11:49:49.767Z,6.28
2018-12-27T11:52:18.237Z,6.34
2018-12-27T11:54:46.747Z,6.56
2018-12-27T11:57:15.306Z,6.70
2018-12-27T11:59:43.780Z,6.78
2018-12-27T12:02:12.270Z,6.88
2018-12-27T12:04:40.898Z,7.06
2018-12-27T12:07:09.508Z,7.36
2018-12-27T12:09:38.109Z,7.36
2018-12-27T12:12:06.689Z,7.39
2018-12-27T12:14:35.214Z,6.95
2018-12-27T12:17:03.680Z,6.88
2018-12-27T12:19:32.226Z,6.73
2018-12-27T12:22:00.805Z,6.63
2018-12-27T12:24:29.311Z,6.53
2018-12-27T12:26:57.945Z,6.35
2018-12-27T12:29:26.545Z,6.48
2018-12-27T12:31:56.357Z,6.69
2018-12-27T12:34:24.912Z,7.03
2018-12-27T12:36:54.120Z,7.28
2018-12-27T12:39:22.701Z,7.56
2018-12-27T12:41:51.324Z,7.79
2018-12-27T12:44:19.835Z,7.76
2018-12-27T12:46:48.424Z,7.40
2018-12-27T12:49:16.995Z,7.25
2018-12-27T12:51:45.748Z,6.96
2018-12-27T12:54:14.233Z,6.68
2018-12-27T12:56:42.851Z,6.67
2018-12-27T12:59:11.362Z,6.51
2018-12-27T13:01:39.986Z,6.34
2018-12-27T13:04:08.626Z,6.33
2018-12-27T13:06:37.222Z,6.67
2018-12-27T13:09:07.130Z,7.00
2018-12-27T13:11:35.751Z,7.36
2018-12-27T13:14:04.398Z,7.56
2018-12-27T13:16:33.206Z,7.76
2018-12-27T13:19:01.904Z,7.77
2018-12-27T13:21:30.447Z,7.57
2018-12-27T13:23:59.048Z,7.15
2018-12-27T13:26:27.579Z,7.14
2018-12-27T13:28:56.285Z,7.11
2018-12-27T13:31:24.868Z,7.05
2018-12-27T13:33:53.485Z,7.16
2018-12-27T13:36:25.304Z,7.17
2018-12-27T13:38:52.274Z,7.26
2018-12-27T13:41:20.846Z,7.40
2018-12-27T13:43:49.540Z,7.59
2018-12-27T13:46:18.099Z,7.76
2018-12-27T13:48:46.742Z,7.88
2018-12-27T13:51:15.326Z,8.07
2018-12-27T13:53:44.408Z,8.15
2018-12-27T13:56:13.013Z,7.69
2018-12-27T13:58:41.498Z,7.29
2018-12-27T14:01:10.119Z,7.12
2018-12-27T14:03:38.665Z,7.10
2018-12-27T14:06:07.211Z,6.96
2018-12-27T14:08:35.922Z,6.65
2018-12-27T14:11:04.513Z,6.58
2018-12-27T14:13:33.166Z,6.74
2018-12-27T14:16:01.817Z,7.12
2018-12-27T14:18:30.252Z,7.39
2018-12-27T14:20:58.846Z,7.54
2018-12-27T14:23:27.412Z,7.66
2018-12-27T14:25:56.016Z,7.81
2018-12-27T14:28:24.501Z,7.88
2018-12-27T14:30:53.096Z,7.37
2018-12-27T14:33:21.683Z,6.87
2018-12-27T14:35:50.278Z,6.50
2018-12-27T14:38:18.788Z,6.41
2018-12-27T14:40:47.292Z,5.95
2018-12-27T14:43:15.922Z,5.76
2018-12-27T14:45:44.609Z,6.11
2018-12-27T14:48:13.227Z,6.26
2018-12-27T14:50:41.721Z,6.58
2018-12-27T14:53:10.377Z,6.86
2018-12-27T14:55:39.079Z,7.03
2018-12-27T14:58:07.618Z,7.08
2018-12-27T15:00:36.271Z,7.05
2018-12-27T15:03:04.887Z,7.12
2018-12-27T15:07:54.711Z,5.97
2018-12-27T15:10:23.322Z,5.27
2018-12-27T15:12:51.828Z,4.66
2018-12-27T15:15:20.446Z,4.39
2018-12-27T15:17:49.049Z,4.67
2018-12-27T15:20:17.592Z,5.19
2018-12-27T15:22:46.257Z,5.59
2018-12-27T15:25:14.892Z,5.73
2018-12-27T15:27:43.462Z,5.71
2018-12-27T15:30:12.050Z,5.91
2018-12-27T15:32:40.636Z,5.99
2018-12-27T15:35:09.168Z,5.89
2018-12-27T15:37:37.834Z,5.83
2018-12-27T15:40:07.469Z,5.60
2018-12-27T15:42:36.091Z,4.89
2018-12-27T15:45:05.122Z,4.16
2018-12-27T15:47:33.652Z,3.57
2018-12-27T15:50:02.204Z,3.47
2018-12-27T15:52:30.780Z,3.76
2018-12-27T15:54:59.474Z,4.25
2018-12-27T15:57:28.059Z,4.75
2018-12-27T15:59:56.670Z,5.01
2018-12-27T16:02:25.334Z,5.36
2018-12-27T16:04:53.857Z,5.45
2018-12-27T16:07:22.491Z,5.61
2018-12-27T16:09:50.962Z,5.64
2018-12-27T16:12:19.556Z,5.59
2018-12-27T16:14:48.036Z,5.63
2018-12-27T16:17:16.516Z,5.14
2018-12-27T16:19:45.185Z,4.27
2018-12-27T16:22:13.746Z,3.57
2018-12-27T16:24:42.399Z,3.43
2018-12-27T16:27:10.945Z,3.84
2018-12-27T16:29:39.576Z,4.29
2018-12-27T16:32:08.271Z,4.81
2018-12-27T16:34:36.890Z,5.11
2018-12-27T16:37:08.873Z,5.27
2018-12-27T16:39:35.847Z,5.48
2018-12-27T16:42:04.482Z,5.70
2018-12-27T16:44:33.220Z,5.79
2018-12-27T16:47:02.006Z,5.69
2018-12-27T16:49:30.573Z,5.76
2018-12-27T16:51:59.252Z,5.45
2018-12-27T16:54:27.959Z,4.66
2018-12-27T16:56:56.650Z,4.00
2018-12-27T16:59:25.382Z,3.64
2018-12-27T17:01:54.053Z,3.68
2018-12-27T17:04:22.699Z,3.86
2018-12-27T17:06:51.467Z,4.25
2018-12-27T17:09:20.163Z,4.73
2018-12-27T17:11:49.867Z,5.07
2018-12-27T17:14:18.640Z,5.22
2018-12-27T17:16:47.255Z,5.30
2018-12-27T17:19:15.968Z,5.30
2018-12-27T17:21:45.551Z,5.17
2018-12-27T17:24:14.222Z,5.12
2018-12-27T17:26:42.848Z,5.06
2018-12-27T17:29:11.491Z,4.37
2018-12-27T17:31:40.094Z,3.69
2018-12-27T17:34:08.843Z,3.17
2018-12-27T17:36:37.530Z,3.21
2018-12-27T17:39:07.020Z,3.52
2018-12-27T17:41:35.683Z,3.72
2018-12-27T17:44:04.400Z,4.12
2018-12-27T17:46:33.171Z,4.58
2018-12-27T17:49:01.790Z,4.88
2018-12-27T17:51:30.555Z,5.02
2018-12-27T17:53:59.182Z,4.94
2018-12-27T17:56:27.902Z,4.73
2018-12-27T17:58:56.640Z,4.56
2018-12-27T18:01:25.327Z,4.57
2018-12-27T18:03:53.981Z,4.01
2018-12-27T18:06:22.590Z,3.24
2018-12-27T18:08:51.213Z,2.79
2018-12-27T18:11:19.859Z,2.56
2018-12-27T18:13:48.451Z,2.80
2018-12-27T18:16:17.122Z,3.07
2018-12-27T18:18:45.819Z,3.48
2018-12-27T18:21:14.476Z,3.80
2018-12-27T18:23:43.188Z,4.10
2018-12-27T18:26:14.694Z,4.32
2018-12-27T18:28:43.418Z,4.29
2018-12-27T18:31:12.032Z,4.26
2018-12-27T18:33:40.617Z,4.12
2018-12-27T18:36:09.470Z,4.27
2018-12-27T18:38:38.256Z,4.21
2018-12-27T18:41:07.868Z,3.49
2018-12-27T18:43:36.470Z,2.81
2018-12-27T18:46:05.032Z,2.49
2018-12-27T18:48:33.624Z,2.61
2018-12-27T18:51:02.350Z,3.06
2018-12-27T18:53:30.949Z,3.50
2018-12-27T18:55:59.604Z,3.69
2018-12-27T18:58:28.234Z,3.88
2018-12-27T19:00:56.830Z,3.99
2018-12-27T19:03:25.562Z,4.07
2018-12-27T19:05:54.176Z,4.11
2018-12-27T19:08:22.812Z,3.94
2018-12-27T19:11:27.827Z,3.98
2018-12-27T19:13:56.520Z,3.90
2018-12-27T19:16:25.206Z,2.97
2018-12-27T19:18:53.856Z,2.47
2018-12-27T19:21:22.526Z,2.09
2018-12-27T19:23:51.173Z,2.46
2018-12-27T19:26:19.716Z,2.84
2018-12-27T19:28:48.352Z,3.26
2018-12-27T19:31:17.146Z,3.57
2018-12-27T19:33:46.246Z,3.77
2018-12-27T19:36:14.917Z,3.80
2018-12-27T19:38:43.582Z,3.85
2018-12-27T19:41:12.257Z,3.70
2018-12-27T19:43:40.903Z,3.63
2018-12-27T19:46:09.567Z,3.65
2018-12-27T19:48:38.304Z,3.73
2018-12-27T19:51:07.055Z,3.31
2018-12-27T19:53:35.748Z,2.55
2018-12-27T19:56:04.412Z,2.04
2018-12-27T19:58:33.066Z,2.24
2018-12-27T20:01:01.706Z,2.51
2018-12-27T20:03:30.411Z,2.81
2018-12-27T20:05:58.903Z,3.00
2018-12-27T20:08:27.674Z,3.30
2018-12-27T20:10:56.441Z,3.52
2018-12-27T20:13:25.191Z,3.72
2018-12-27T20:15:53.850Z,3.83
2018-12-27T20:18:23.697Z,3.79
2018-12-27T20:20:52.407Z,3.64
2018-12-27T20:23:21.014Z,3.65
2018-12-27T20:25:49.760Z,3.02
2018-12-27T20:28:18.351Z,2.16
2018-12-27T20:30:46.906Z,1.67
2018-12-27T20:33:16.545Z,1.74
2018-12-27T20:35:48.035Z,2.27
2018-12-27T20:38:16.833Z,2.87
2018-12-27T20:40:45.481Z,3.29
2018-12-27T20:43:14.151Z,3.61
2018-12-27T20:45:42.836Z,3.89
2018-12-27T20:48:11.443Z,4.05
2018-12-27T20:50:40.189Z,4.13
2018-12-27T20:53:08.917Z,4.11
2018-12-27T20:55:37.530Z,4.00
2018-12-27T20:58:06.155Z,3.98
2018-12-27T21:00:34.872Z,3.65
2018-12-27T21:03:03.592Z,3.29
2018-12-27T21:05:32.309Z,3.08
2018-12-27T21:08:00.988Z,2.75
2018-12-27T21:10:29.758Z,2.97
2018-12-27T21:12:58.300Z,3.35
2018-12-27T21:15:26.989Z,3.78
2018-12-27T21:17:57.147Z,4.03
2018-12-27T21:20:25.841Z,4.18
2018-12-27T21:22:54.449Z,4.34
2018-12-27T21:25:23.171Z,4.47
2018-12-27T21:27:51.914Z,4.48
2018-12-27T21:30:20.478Z,4.49
2018-12-27T21:32:49.180Z,4.50
2018-12-27T21:35:17.793Z,4.46
2018-12-27T21:37:47.125Z,3.78
2018-12-27T21:40:15.811Z,3.11
2018-12-27T21:42:44.458Z,2.66
2018-12-27T21:45:14.617Z,2.65
2018-12-27T21:47:43.325Z,2.95
2018-12-27T21:50:11.910Z,3.37
2018-12-27T21:52:40.461Z,3.74
2018-12-27T21:55:09.040Z,4.02
2018-12-27T21:57:37.736Z,4.22
2018-12-27T22:00:09.268Z,4.31
2018-12-27T22:02:38.012Z,4.38
2018-12-27T22:05:06.605Z,4.39
2018-12-27T22:07:35.405Z,4.17
2018-12-27T22:10:06.624Z,4.08
2018-12-27T22:12:35.257Z,3.46
2018-12-27T22:15:03.847Z,2.67
2018-12-27T22:17:32.417Z,2.10
2018-12-27T22:20:00.968Z,2.15
2018-12-27T22:22:29.611Z,2.28
2018-12-27T22:24:58.170Z,2.74
2018-12-27T22:27:26.745Z,3.10
2018-12-27T22:29:55.305Z,3.24
2018-12-27T22:32:23.821Z,3.44
2018-12-27T22:34:52.425Z,3.72
2018-12-27T22:37:20.950Z,3.92
2018-12-27T22:39:49.455Z,3.93
2018-12-27T22:42:18.045Z,3.73
2018-12-27T22:44:47.259Z,3.82
2018-12-27T22:47:15.857Z,3.46
2018-12-27T22:49:44.357Z,2.64
2018-12-27T22:52:12.940Z,2.00
2018-12-27T22:54:41.626Z,2.14
2018-12-27T22:57:10.215Z,2.47
2018-12-27T22:59:38.854Z,2.87
2018-12-27T23:02:07.530Z,3.21
2018-12-27T23:04:36.098Z,3.44
2018-12-27T23:07:04.654Z,3.59
2018-12-27T23:09:33.235Z,3.75
2018-12-27T23:12:01.862Z,3.69
2018-12-27T23:14:30.458Z,3.73
2018-12-27T23:16:58.949Z,3.54
2018-12-27T23:19:27.574Z,3.47
2018-12-27T23:21:56.162Z,3.46
2018-12-27T23:24:24.676Z,3.19
2018-12-27T23:26:53.274Z,2.69
2018-12-27T23:29:21.772Z,2.44
2018-12-27T23:31:50.338Z,2.51
2018-12-27T23:34:18.855Z,2.76
2018-12-27T23:36:47.546Z,3.12
2018-12-27T23:39:16.135Z,3.59
2018-12-27T23:41:44.587Z,3.59
2018-12-27T23:44:13.226Z,3.68
2018-12-27T23:46:41.696Z,3.64
2018-12-27T23:49:10.244Z,3.74
2018-12-27T23:51:38.889Z,3.76
2018-12-27T23:54:07.330Z,3.72
2018-12-27T23:56:35.954Z,3.79
2018-12-27T23:59:04.557Z,3.53
